createdAt,value
2023-01-27T09:46:17.002Z,74.37
2023-01-27T09:49:50.896Z,74.00
2023-01-27T09:53:12.514Z,73.19
2023-01-27T09:56:39.445Z,72.39
2023-01-27T09:59:57.118Z,71.55
2023-01-27T10:03:05.921Z,71.18
2023-01-27T10:06:19.988Z,71.33
2023-01-27T10:09:39.087Z,71.48
2023-01-27T10:13:12.955Z,70.61
2023-01-27T10:16:21.739Z,70.50
2023-01-27T10:20:06.050Z,70.04
2023-01-27T10:23:30.882Z,69.91
2023-01-27T10:26:54.957Z,70.35
2023-01-27T10:29:38.080Z,70.97
2023-01-27T10:32:37.689Z,69.57
2023-01-27T10:35:20.951Z,69.90
2023-01-27T10:38:42.600Z,68.90
2023-01-27T10:41:41.727Z,69.21
2023-01-27T10:44:46.581Z,69.08
2023-01-27T10:48:14.908Z,68.39
2023-01-27T10:51:17.850Z,67.80
2023-01-27T10:54:07.575Z,68.45
2023-01-27T10:57:04.463Z,69.28
2023-01-27T11:00:21.870Z,69.00
2023-01-27T11:03:09.863Z,68.84
2023-01-27T11:05:58.065Z,68.25
2023-01-27T11:08:44.961Z,68.26
2023-01-27T11:11:33.463Z,69.01
2023-01-27T11:14:39.346Z,67.52
2023-01-27T11:17:42.512Z,67.51
2023-01-27T11:20:35.444Z,67.35
2023-01-27T11:23:45.655Z,67.43
2023-01-27T11:26:43.540Z,67.37
2023-01-27T11:29:49.911Z,67.55
2023-01-27T11:32:51.260Z,67.23
2023-01-27T11:35:18.686Z,66.89
2023-01-27T11:37:51.265Z,67.41
2023-01-27T11:40:33.634Z,66.83
2023-01-27T11:43:02.217Z,67.07
2023-01-27T11:45:36.624Z,66.71
2023-01-27T11:48:12.537Z,66.82
2023-01-27T11:50:43.978Z,66.93
2023-01-27T11:53:29.801Z,66.24
2023-01-27T11:56:07.622Z,67.36
2023-01-27T11:59:18.331Z,65.89
2023-01-27T12:02:24.126Z,66.38
2023-01-27T12:05:14.579Z,66.84
2023-01-27T12:08:04.691Z,66.72
2023-01-27T12:10:44.266Z,67.04
2023-01-27T12:13:21.143Z,66.40
2023-01-27T12:16:00.591Z,66.56
2023-01-27T12:18:32.277Z,66.20
2023-01-27T12:21:06.591Z,66.15
2023-01-27T12:23:46.858Z,66.26
2023-01-27T12:26:14.512Z,66.14
2023-01-27T12:28:54.548Z,66.09
2023-01-27T12:31:42.200Z,65.97
2023-01-27T12:34:36.650Z,66.35
2023-01-27T12:37:07.859Z,66.30
2023-01-27T12:40:00.483Z,66.52
2023-01-27T12:42:44.286Z,65.71
2023-01-27T12:45:35.520Z,65.42
2023-01-27T12:48:20.766Z,65.21
2023-01-27T12:50:51.013Z,65.83
2023-01-27T12:53:27.728Z,65.66
2023-01-27T12:56:20.916Z,65.75
2023-01-27T12:58:59.728Z,65.40
2023-01-27T13:01:38.416Z,65.06
2023-01-27T13:04:25.215Z,65.09
2023-01-27T13:07:03.014Z,65.72
2023-01-27T13:10:03.511Z,65.27
2023-01-27T13:13:00.749Z,65.10
2023-01-27T13:15:31.582Z,64.82
2023-01-27T13:18:12.075Z,64.95
2023-01-27T13:20:49.566Z,64.89
2023-01-27T13:23:34.819Z,65.15
2023-01-27T13:26:05.015Z,64.75
2023-01-27T13:28:55.885Z,64.65
2023-01-27T13:32:16.078Z,64.43
2023-01-27T13:35:25.955Z,64.53
2023-01-27T13:38:44.216Z,64.60
2023-01-27T13:41:27.163Z,64.41
2023-01-27T13:44:42.451Z,64.05
2023-01-27T13:47:27.998Z,63.96
2023-01-27T13:50:16.962Z,64.40
2023-01-27T13:52:50.159Z,64.40
2023-01-27T13:56:19.171Z,64.03
2023-01-27T13:59:40.930Z,62.89
2023-01-27T14:03:05.124Z,63.34
2023-01-27T14:06:24.560Z,63.15
2023-01-27T14:10:08.687Z,62.83
2023-01-27T14:13:23.872Z,63.15
2023-01-27T14:16:25.949Z,62.95
2023-01-27T14:19:41.394Z,63.05
2023-01-27T14:23:19.969Z,63.06
2023-01-27T14:27:09.856Z,62.55
2023-01-27T14:30:13.482Z,62.49
2023-01-27T14:32:55.377Z,62.50
2023-01-27T14:36:11.516Z,62.50
2023-01-27T14:39:14.346Z,62.92
2023-01-27T14:45:28.817Z,62.19
2023-01-27T14:48:36.760Z,62.45
2023-01-27T14:51:43.826Z,62.70
2023-01-27T14:55:31.907Z,62.41
2023-01-27T14:58:44.662Z,62.31
2023-01-27T15:01:32.141Z,62.37
2023-01-27T15:05:02.971Z,61.44
2023-01-27T15:08:18.605Z,61.60
2023-01-27T15:11:31.696Z,61.41
2023-01-27T15:14:45.252Z,61.67
2023-01-27T15:17:46.610Z,61.89
2023-01-27T15:20:52.006Z,62.47
2023-01-27T15:24:18.556Z,61.73
2023-01-27T15:26:47.965Z,61.99
2023-01-27T15:29:17.336Z,62.27
2023-01-27T15:32:28.463Z,61.33
2023-01-27T15:35:37.916Z,60.91
2023-01-27T15:38:35.139Z,61.73
2023-01-27T15:41:12.147Z,61.73
2023-01-27T15:44:02.240Z,61.95
2023-01-27T15:46:37.316Z,62.34
2023-01-27T15:49:12.853Z,61.74
2023-01-27T15:51:40.365Z,61.88
2023-01-27T15:54:27.450Z,61.37
2023-01-27T15:56:58.172Z,61.05
2023-01-27T15:59:58.736Z,60.88
2023-01-27T16:02:32.378Z,61.68
2023-01-27T16:05:36.564Z,61.20
2023-01-27T16:08:13.825Z,61.40
2023-01-27T16:10:42.232Z,62.10
2023-01-27T16:13:29.793Z,61.60
2023-01-27T16:16:18.870Z,61.72
2023-01-27T16:19:29.240Z,61.47
2023-01-27T16:22:14.933Z,61.79
2023-01-27T16:25:27.014Z,61.88
2023-01-27T16:28:12.966Z,61.71
2023-01-27T16:30:56.773Z,62.31
2023-01-27T16:33:51.708Z,62.15
2023-01-27T16:36:36.157Z,62.67
2023-01-27T16:39:43.619Z,62.17
2023-01-27T16:42:16.905Z,63.00
2023-01-27T16:44:51.128Z,63.16
2023-01-27T16:47:45.522Z,63.18
2023-01-27T16:50:42.600Z,63.05
2023-01-27T16:53:25.345Z,62.87
2023-01-27T16:56:15.271Z,63.40
2023-01-27T16:58:46.725Z,63.25
2023-01-27T17:01:39.723Z,63.43
2023-01-27T17:04:19.869Z,63.75
2023-01-27T17:06:51.800Z,63.83
2023-01-27T17:09:35.091Z,63.83
2023-01-27T17:12:02.641Z,63.10
2023-01-27T17:14:45.988Z,63.52
2023-01-27T17:17:21.099Z,63.47
2023-01-27T17:19:52.806Z,63.49
2023-01-27T17:22:38.021Z,63.64
2023-01-27T17:25:37.608Z,63.71
2023-01-27T17:28:22.114Z,64.27
2023-01-27T17:30:50.670Z,63.97
2023-01-27T17:33:21.465Z,64.42
2023-01-27T17:36:10.060Z,64.01
2023-01-27T17:38:51.823Z,63.98
2023-01-27T17:41:37.937Z,63.85
2023-01-27T17:44:14.721Z,64.32
2023-01-27T17:46:42.391Z,64.61
2023-01-27T17:49:18.793Z,64.40
2023-01-27T17:51:55.755Z,64.47
2023-01-27T17:54:39.272Z,64.36
2023-01-27T17:57:32.670Z,64.68
